createdAt,value
2022-08-22T00:04:19.196Z,21
2022-08-22T00:09:53.097Z,20.5
2022-08-22T00:15:44.417Z,20.6
2022-08-22T00:21:09.671Z,20.2
2022-08-22T00:26:29.977Z,19.7
2022-08-22T00:32:25.635Z,20.1
2022-08-22T00:38:00.031Z,20
2022-08-22T00:43:41.949Z,18.2
2022-08-22T00:48:54.482Z,17.9
2022-08-22T00:54:40.101Z,18.2
2022-08-22T01:00:17.570Z,18.5
2022-08-22T01:05:47.856Z,18.6
2022-08-22T01:11:38.203Z,18.3
2022-08-22T01:16:44.978Z,18.5
2022-08-22T01:22:34.924Z,19.4
2022-08-22T01:27:56.158Z,17.8
2022-08-22T01:33:55.246Z,17.1
2022-08-22T01:39:14.765Z,16.7
2022-08-22T01:44:54.395Z,16.8
2022-08-22T01:50:26.923Z,16.8
2022-08-22T01:55:58.510Z,16.9
2022-08-22T02:01:38.685Z,16.7
2022-08-22T02:07:31.527Z,16.6
2022-08-22T02:12:58.163Z,16.4
2022-08-22T02:18:17.767Z,16.5
2022-08-22T02:24:15.698Z,16.5
2022-08-22T02:29:23.971Z,16.6
2022-08-22T02:35:07.471Z,16.5
2022-08-22T02:40:48.167Z,16.6
2022-08-22T02:46:14.123Z,16.6
2022-08-22T02:51:46.456Z,16.6
2022-08-22T02:57:21.373Z,16.6
2022-08-22T03:03:15.959Z,16.2
2022-08-22T03:08:50.890Z,16.3
2022-08-22T03:14:04.419Z,16.4
2022-08-22T03:19:35.337Z,16.4
2022-08-22T03:25:22.930Z,16.1
2022-08-22T03:31:09.143Z,16.2
2022-08-22T03:36:14.825Z,16.1
2022-08-22T03:42:16.668Z,16.1
2022-08-22T03:47:44.424Z,16.3
2022-08-22T03:53:18.897Z,16.2
2022-08-22T03:58:38.140Z,16.1
2022-08-22T04:04:12.771Z,16.1
2022-08-22T04:09:56.409Z,16
2022-08-22T04:15:20.849Z,16.2
2022-08-22T04:20:48.427Z,15.9
2022-08-22T04:26:37.708Z,15.7
2022-08-22T04:32:06.198Z,15.7
2022-08-22T04:37:48.058Z,16
2022-08-22T04:43:21.973Z,16.2
2022-08-22T04:49:05.595Z,16.1
2022-08-22T04:54:18.000Z,15.8
2022-08-22T05:00:02.217Z,15.5
2022-08-22T05:05:32.164Z,15.6
2022-08-22T05:11:26.922Z,15.7
2022-08-22T05:16:50.277Z,15.7
2022-08-22T05:22:36.418Z,15.8
2022-08-22T05:28:04.489Z,16
2022-08-22T05:33:21.948Z,16.3
2022-08-22T05:39:21.096Z,16.9
2022-08-22T05:44:32.555Z,17.2
2022-08-22T05:50:05.432Z,16.9
2022-08-22T05:55:58.831Z,17.1
2022-08-22T06:01:22.455Z,16.8
2022-08-22T06:07:13.685Z,17
2022-08-22T06:12:48.751Z,17
2022-08-22T06:18:25.946Z,16.9
2022-08-22T06:23:56.956Z,16.7
2022-08-22T06:29:23.657Z,16.8
2022-08-22T06:34:50.964Z,16.9
2022-08-22T06:40:46.557Z,17.1
2022-08-22T06:46:10.912Z,17.5
2022-08-22T06:51:47.618Z,17.7
2022-08-22T06:57:16.746Z,18
2022-08-22T07:02:50.836Z,18.5
2022-08-22T07:08:38.953Z,19.3
2022-08-22T07:14:10.994Z,19.6
2022-08-22T07:19:35.412Z,19.3
2022-08-22T07:25:16.792Z,19.5
2022-08-22T07:30:45.690Z,19.5
2022-08-22T07:36:44.458Z,20
2022-08-22T07:42:06.029Z,20.1
2022-08-22T07:47:49.268Z,20.2
2022-08-22T07:53:15.525Z,20.1
2022-08-22T07:59:06.820Z,20.8
2022-08-22T08:04:54.490Z,20.8
2022-08-22T08:10:15.135Z,21
2022-08-22T08:15:46.214Z,20.8
2022-08-22T08:21:37.111Z,21.2
2022-08-22T08:27:05.805Z,21.6
2022-08-22T08:32:51.335Z,21.6
2022-08-22T08:38:30.017Z,21.3
2022-08-22T08:44:15.708Z,21.7
2022-08-22T08:49:51.099Z,22.1
2022-08-22T08:55:20.085Z,22
2022-08-22T09:01:06.754Z,22.1
2022-08-22T09:06:42.345Z,22.1
2022-08-22T09:12:19.248Z,23.1
2022-08-22T09:17:38.745Z,23
2022-08-22T09:23:23.097Z,23.2
2022-08-22T09:29:08.053Z,23.2
2022-08-22T09:34:31.072Z,23.1
2022-08-22T09:45:43.418Z,23.7
2022-08-22T09:51:31.427Z,23.8
2022-08-22T09:57:26.534Z,23.7
2022-08-22T10:03:02.080Z,24.3
2022-08-22T10:08:28.122Z,24.1
2022-08-22T10:14:08.770Z,23.8
2022-08-22T10:19:56.372Z,24.5
2022-08-22T10:25:22.714Z,24.8
2022-08-22T10:31:15.506Z,24.6
2022-08-22T10:36:33.827Z,25.4
2022-08-22T10:42:23.108Z,24.8
2022-08-22T10:48:02.397Z,25
2022-08-22T10:53:28.425Z,25.3
2022-08-22T10:59:27.519Z,25.5
2022-08-22T11:05:05.577Z,25.3
2022-08-22T11:10:28.200Z,25.3
2022-08-22T11:16:17.187Z,25.5
2022-08-22T11:21:43.351Z,26
2022-08-22T11:27:44.046Z,26.1
2022-08-22T11:33:01.350Z,25.8
2022-08-22T11:38:56.536Z,26.1
2022-08-22T11:44:42.359Z,26.1
2022-08-22T11:55:50.176Z,26
2022-08-22T12:01:16.997Z,26.7
2022-08-22T12:07:17.874Z,26.8
2022-08-22T12:12:31.121Z,26.7
2022-08-22T12:18:30.330Z,26.4
2022-08-22T12:23:57.784Z,26.7
2022-08-22T12:29:48.453Z,26.3
2022-08-22T12:35:30.497Z,26.6
2022-08-22T12:40:58.884Z,26.8
2022-08-22T12:46:50.854Z,27
2022-08-22T12:52:14.306Z,26.7
2022-08-22T12:58:00.358Z,26.6
2022-08-22T13:03:46.764Z,26.9
2022-08-22T13:09:12.078Z,26.7
2022-08-22T13:15:06.136Z,26.8
2022-08-22T13:20:31.026Z,26.8
2022-08-22T13:26:16.494Z,27.1
2022-08-22T13:31:48.779Z,26.8
2022-08-22T13:37:44.325Z,26.7
2022-08-22T13:43:09.607Z,27
2022-08-22T13:49:05.947Z,26.8
2022-08-22T13:54:31.096Z,27.2
2022-08-22T14:00:28.958Z,26.9
2022-08-22T14:05:58.850Z,27
2022-08-22T14:11:49.717Z,27
2022-08-22T14:17:05.367Z,26.7
2022-08-22T14:22:46.035Z,26.7
2022-08-22T14:28:29.548Z,27
2022-08-22T14:34:09.377Z,27.1
2022-08-22T14:39:42.756Z,27.2
2022-08-22T14:45:33.245Z,27
2022-08-22T14:51:24.384Z,27.1
2022-08-22T14:56:59.226Z,26.8
2022-08-22T15:02:39.329Z,26.9
2022-08-22T15:08:14.598Z,26.9
2022-08-22T15:14:06.736Z,27
2022-08-22T15:19:30.248Z,27
2022-08-22T15:24:59.819Z,27
2022-08-22T15:30:54.015Z,26.8
2022-08-22T15:36:16.798Z,26.8
2022-08-22T15:41:57.586Z,26.9
2022-08-22T15:47:32.929Z,26.8
2022-08-22T15:53:21.368Z,26.5
2022-08-22T15:58:49.960Z,26.6
2022-08-22T16:04:34.768Z,26.6
2022-08-22T16:10:07.620Z,26.5
2022-08-22T16:16:02.958Z,26.3
2022-08-22T16:21:29.085Z,26.5
2022-08-22T16:27:11.292Z,26.4
2022-08-22T16:32:48.068Z,26.5
2022-08-22T16:43:54.088Z,26
2022-08-22T16:49:49.362Z,25.7
2022-08-22T16:55:04.035Z,25.5
2022-08-22T17:00:46.133Z,25.7
2022-08-22T17:06:31.428Z,25.9
2022-08-22T17:12:18.050Z,25.3
2022-08-22T17:17:50.928Z,25
2022-08-22T17:23:16.712Z,24.7
2022-08-22T17:28:55.865Z,24.5
2022-08-22T17:34:42.587Z,24.8
2022-08-22T17:40:22.306Z,24.8
2022-08-22T17:46:05.699Z,24.5
2022-08-22T17:51:28.851Z,24.4
2022-08-22T17:57:05.608Z,24.4
2022-08-22T18:02:43.021Z,24.2
2022-08-22T18:08:37.265Z,24
2022-08-22T18:14:05.115Z,24
2022-08-22T18:19:41.596Z,23.3
2022-08-22T18:24:57.678Z,21.6
2022-08-22T18:30:50.099Z,21.5
2022-08-22T18:36:12.162Z,20.7
2022-08-22T18:41:43.144Z,20.6
2022-08-22T18:47:16.475Z,20.4
2022-08-22T18:53:04.632Z,20
2022-08-22T18:58:37.816Z,20.1
2022-08-22T19:03:59.449Z,20.3
2022-08-22T19:09:44.645Z,20.7
2022-08-22T19:15:32.710Z,20.9
2022-08-22T19:20:44.904Z,19.8
2022-08-22T19:26:30.883Z,19.9
2022-08-22T19:32:00.505Z,20.7
2022-08-22T19:37:42.684Z,20.9
2022-08-22T19:43:11.370Z,20.4
2022-08-22T19:48:40.974Z,20.4
2022-08-22T19:54:25.659Z,20.5
2022-08-22T19:59:57.886Z,20.5
2022-08-22T20:05:36.058Z,20.3
2022-08-22T20:11:07.338Z,20.3
2022-08-22T20:16:53.963Z,20
2022-08-22T20:22:28.657Z,19.8
2022-08-22T20:27:51.672Z,20
2022-08-22T20:33:27.935Z,19.6
2022-08-22T20:39:16.040Z,19.8
2022-08-22T20:44:51.143Z,19.6
2022-08-22T20:50:26.315Z,19.4
2022-08-22T20:56:08.531Z,19.6
2022-08-22T21:01:50.910Z,19.4
2022-08-22T21:07:20.100Z,19.1
2022-08-22T21:12:56.680Z,19.3
2022-08-22T21:18:39.730Z,19.2
2022-08-22T21:24:08.579Z,19.3
2022-08-22T21:29:40.141Z,19.4
2022-08-22T21:35:14.806Z,19.1
2022-08-22T21:40:38.374Z,19
2022-08-22T21:46:22.794Z,18
2022-08-22T21:51:53.470Z,17.6
2022-08-22T21:57:46.965Z,17.4
2022-08-22T22:03:00.592Z,17.4
2022-08-22T22:08:37.382Z,17.4
2022-08-22T22:14:12.846Z,17.4
2022-08-22T22:19:46.935Z,17.4
2022-08-22T22:25:42.073Z,17.3
2022-08-22T22:31:12.592Z,17.5
2022-08-22T22:36:25.020Z,17.2
2022-08-22T22:42:18.478Z,17.2
2022-08-22T22:47:57.098Z,17.1
2022-08-22T22:53:28.550Z,17.1
2022-08-22T22:58:59.139Z,17.2
2022-08-22T23:04:35.203Z,17.1
2022-08-22T23:10:02.258Z,16.7
2022-08-22T23:15:37.499Z,16.3
2022-08-22T23:21:10.654Z,16.3
2022-08-22T23:26:41.159Z,16
2022-08-22T23:32:29.192Z,16.1
2022-08-22T23:37:57.334Z,17.2
2022-08-22T23:43:37.208Z,16.8
2022-08-22T23:48:59.382Z,16.9
2022-08-22T23:54:40.237Z,16.5
